sensor_id;sensor_type;location;lat;lon;timestamp;temperature;humidity
7399;DHT22;3740;50.700;7.184;2022-07-23T00:02:19;20.60;99.90
7399;DHT22;3740;50.700;7.184;2022-07-23T00:05:05;20.60;99.90
7399;DHT22;3740;50.700;7.184;2022-07-23T00:07:51;20.60;99.90
7399;DHT22;3740;50.700;7.184;2022-07-23T00:10:37;20.60;99.90
7399;DHT22;3740;50.700;7.184;2022-07-23T00:13:23;20.60;99.90
7399;DHT22;3740;50.700;7.184;2022-07-23T00:16:09;20.60;99.90
7399;DHT22;3740;50.700;7.184;2022-07-23T00:18:56;20.50;99.90
7399;DHT22;3740;50.700;7.184;2022-07-23T00:21:41;20.50;99.90
7399;DHT22;3740;50.700;7.184;2022-07-23T00:24:27;20.60;99.90
7399;DHT22;3740;50.700;7.184;2022-07-23T00:27:13;20.60;99.90
7399;DHT22;3740;50.700;7.184;2022-07-23T00:29:59;20.50;99.90
7399;DHT22;3740;50.700;7.184;2022-07-23T00:35:34;20.50;99.90
7399;DHT22;3740;50.700;7.184;2022-07-23T00:38:20;20.50;99.90
7399;DHT22;3740;50.700;7.184;2022-07-23T00:41:05;20.60;99.90
7399;DHT22;3740;50.700;7.184;2022-07-23T00:43:51;20.50;99.90
7399;DHT22;3740;50.700;7.184;2022-07-23T00:46:37;20.50;99.90
7399;DHT22;3740;50.700;7.184;2022-07-23T00:49:28;20.50;99.90
7399;DHT22;3740;50.700;7.184;2022-07-23T00:52:14;20.50;99.90
7399;DHT22;3740;50.700;7.184;2022-07-23T00:55:00;20.30;99.90
7399;DHT22;3740;50.700;7.184;2022-07-23T00:57:47;20.20;99.90
7399;DHT22;3740;50.700;7.184;2022-07-23T01:00:33;20.20;99.90
7399;DHT22;3740;50.700;7.184;2022-07-23T01:03:18;20.30;99.90
7399;DHT22;3740;50.700;7.184;2022-07-23T01:06:05;20.20;99.90
7399;DHT22;3740;50.700;7.184;2022-07-23T01:08:51;20.30;99.90
7399;DHT22;3740;50.700;7.184;2022-07-23T01:11:38;20.20;99.90
7399;DHT22;3740;50.700;7.184;2022-07-23T01:14:24;20.30;99.90
7399;DHT22;3740;50.700;7.184;2022-07-23T01:17:09;20.30;99.90
7399;DHT22;3740;50.700;7.184;2022-07-23T01:19:55;20.20;99.90
7399;DHT22;3740;50.700;7.184;2022-07-23T01:22:41;20.20;99.90
7399;DHT22;3740;50.700;7.184;2022-07-23T01:25:27;20.20;99.90
7399;DHT22;3740;50.700;7.184;2022-07-23T01:28:13;20.20;99.90
7399;DHT22;3740;50.700;7.184;2022-07-23T01:31:00;20.20;99.90
7399;DHT22;3740;50.700;7.184;2022-07-23T01:33:46;20.10;99.90
7399;DHT22;3740;50.700;7.184;2022-07-23T01:36:33;20.10;99.90
7399;DHT22;3740;50.700;7.184;2022-07-23T01:39:19;20.10;99.90
7399;DHT22;3740;50.700;7.184;2022-07-23T01:42:05;20.10;99.90
7399;DHT22;3740;50.700;7.184;2022-07-23T01:44:51;20.00;99.90
7399;DHT22;3740;50.700;7.184;2022-07-23T01:47:36;20.10;99.90
7399;DHT22;3740;50.700;7.184;2022-07-23T01:50:22;20.00;99.90
7399;DHT22;3740;50.700;7.184;2022-07-23T01:53:08;20.00;99.90
7399;DHT22;3740;50.700;7.184;2022-07-23T01:55:54;20.00;99.90
7399;DHT22;3740;50.700;7.184;2022-07-23T01:58:40;20.00;99.90
7399;DHT22;3740;50.700;7.184;2022-07-23T02:01:26;20.00;99.90
7399;DHT22;3740;50.700;7.184;2022-07-23T02:04:12;20.00;99.90
7399;DHT22;3740;50.700;7.184;2022-07-23T02:06:58;20.00;99.90
7399;DHT22;3740;50.700;7.184;2022-07-23T02:09:44;19.90;99.90
7399;DHT22;3740;50.700;7.184;2022-07-23T02:12:30;20.00;99.90
7399;DHT22;3740;50.700;7.184;2022-07-23T02:15:16;20.00;99.90
7399;DHT22;3740;50.700;7.184;2022-07-23T02:18:02;19.80;99.90
7399;DHT22;3740;50.700;7.184;2022-07-23T02:20:47;19.90;99.90
7399;DHT22;3740;50.700;7.184;2022-07-23T02:23:33;19.90;99.90
7399;DHT22;3740;50.700;7.184;2022-07-23T02:26:19;19.90;99.90
7399;DHT22;3740;50.700;7.184;2022-07-23T02:29:05;19.90;99.90
7399;DHT22;3740;50.700;7.184;2022-07-23T02:31:51;19.90;99.90
7399;DHT22;3740;50.700;7.184;2022-07-23T02:34:37;19.80;99.90
7399;DHT22;3740;50.700;7.184;2022-07-23T02:37:23;19.80;99.90
7399;DHT22;3740;50.700;7.184;2022-07-23T02:40:09;19.70;99.90
7399;DHT22;3740;50.700;7.184;2022-07-23T02:42:55;19.70;99.90
7399;DHT22;3740;50.700;7.184;2022-07-23T02:45:41;19.60;99.90
7399;DHT22;3740;50.700;7.184;2022-07-23T02:48:27;19.60;99.90
7399;DHT22;3740;50.700;7.184;2022-07-23T02:51:13;19.50;99.90
7399;DHT22;3740;50.700;7.184;2022-07-23T02:53:59;19.40;99.90
7399;DHT22;3740;50.700;7.184;2022-07-23T02:56:45;19.30;99.90
7399;DHT22;3740;50.700;7.184;2022-07-23T02:59:31;19.20;99.90
7399;DHT22;3740;50.700;7.184;2022-07-23T03:02:17;19.20;99.90
7399;DHT22;3740;50.700;7.184;2022-07-23T03:05:03;19.30;99.90
7399;DHT22;3740;50.700;7.184;2022-07-23T03:07:49;19.20;99.90
7399;DHT22;3740;50.700;7.184;2022-07-23T03:10:35;19.20;99.90
7399;DHT22;3740;50.700;7.184;2022-07-23T03:13:21;19.20;99.90
7399;DHT22;3740;50.700;7.184;2022-07-23T03:16:07;19.10;99.90
7399;DHT22;3740;50.700;7.184;2022-07-23T03:18:53;19.10;99.90
7399;DHT22;3740;50.700;7.184;2022-07-23T03:21:39;19.00;99.90
7399;DHT22;3740;50.700;7.184;2022-07-23T03:24:26;19.00;99.90
7399;DHT22;3740;50.700;7.184;2022-07-23T03:27:32;18.90;99.90
7399;DHT22;3740;50.700;7.184;2022-07-23T03:30:18;18.80;99.90
7399;DHT22;3740;50.700;7.184;2022-07-23T03:33:04;18.80;99.90
7399;DHT22;3740;50.700;7.184;2022-07-23T03:35:50;18.70;99.90
7399;DHT22;3740;50.700;7.184;2022-07-23T03:38:35;18.70;99.90
7399;DHT22;3740;50.700;7.184;2022-07-23T03:41:21;18.70;99.90
7399;DHT22;3740;50.700;7.184;2022-07-23T03:44:07;18.70;99.90
7399;DHT22;3740;50.700;7.184;2022-07-23T03:46:53;18.60;99.90
7399;DHT22;3740;50.700;7.184;2022-07-23T03:49:39;18.60;99.90
7399;DHT22;3740;50.700;7.184;2022-07-23T03:52:25;18.60;99.90
7399;DHT22;3740;50.700;7.184;2022-07-23T03:55:11;18.50;99.90
7399;DHT22;3740;50.700;7.184;2022-07-23T03:57:57;18.50;99.90
7399;DHT22;3740;50.700;7.184;2022-07-23T04:00:43;18.50;99.90
7399;DHT22;3740;50.700;7.184;2022-07-23T04:03:29;18.40;99.90
7399;DHT22;3740;50.700;7.184;2022-07-23T04:06:15;18.40;99.90
7399;DHT22;3740;50.700;7.184;2022-07-23T04:09:01;18.30;99.90
7399;DHT22;3740;50.700;7.184;2022-07-23T04:11:47;18.30;99.90
7399;DHT22;3740;50.700;7.184;2022-07-23T04:14:33;18.30;99.90
7399;DHT22;3740;50.700;7.184;2022-07-23T04:17:19;18.40;99.90
7399;DHT22;3740;50.700;7.184;2022-07-23T04:20:05;18.40;99.90
7399;DHT22;3740;50.700;7.184;2022-07-23T04:22:51;18.30;99.90
7399;DHT22;3740;50.700;7.184;2022-07-23T04:25:37;18.40;99.90
7399;DHT22;3740;50.700;7.184;2022-07-23T04:28:23;18.30;99.90
7399;DHT22;3740;50.700;7.184;2022-07-23T04:31:09;18.30;99.90
7399;DHT22;3740;50.700;7.184;2022-07-23T04:33:55;18.30;99.90
7399;DHT22;3740;50.700;7.184;2022-07-23T04:36:41;18.30;99.90
7399;DHT22;3740;50.700;7.184;2022-07-23T04:39:26;18.30;99.90
7399;DHT22;3740;50.700;7.184;2022-07-23T04:42:12;18.30;99.90
7399;DHT22;3740;50.700;7.184;2022-07-23T04:44:58;18.40;99.90
7399;DHT22;3740;50.700;7.184;2022-07-23T04:47:44;18.40;99.90
7399;DHT22;3740;50.700;7.184;2022-07-23T04:50:30;18.40;99.90
7399;DHT22;3740;50.700;7.184;2022-07-23T04:53:16;18.50;99.90
7399;DHT22;3740;50.700;7.184;2022-07-23T04:56:04;18.60;99.90
7399;DHT22;3740;50.700;7.184;2022-07-23T04:58:50;18.50;99.90
7399;DHT22;3740;50.700;7.184;2022-07-23T05:01:36;18.50;99.90
7399;DHT22;3740;50.700;7.184;2022-07-23T05:04:22;18.40;99.90
7399;DHT22;3740;50.700;7.184;2022-07-23T05:07:08;18.40;99.90
7399;DHT22;3740;50.700;7.184;2022-07-23T05:09:54;18.50;99.90
7399;DHT22;3740;50.700;7.184;2022-07-23T05:12:40;18.60;99.90
7399;DHT22;3740;50.700;7.184;2022-07-23T05:15:25;18.60;99.90
7399;DHT22;3740;50.700;7.184;2022-07-23T05:18:12;18.70;99.90
7399;DHT22;3740;50.700;7.184;2022-07-23T05:20:58;18.80;99.90
7399;DHT22;3740;50.700;7.184;2022-07-23T05:23:44;18.90;99.90
7399;DHT22;3740;50.700;7.184;2022-07-23T05:26:29;19.00;99.90
7399;DHT22;3740;50.700;7.184;2022-07-23T05:29:15;19.20;99.90
7399;DHT22;3740;50.700;7.184;2022-07-23T05:32:01;19.10;99.90
7399;DHT22;3740;50.700;7.184;2022-07-23T05:34:47;19.20;99.90
7399;DHT22;3740;50.700;7.184;2022-07-23T05:37:33;19.20;99.90
7399;DHT22;3740;50.700;7.184;2022-07-23T05:40:20;19.30;99.90
7399;DHT22;3740;50.700;7.184;2022-07-23T05:43:06;19.40;99.90
7399;DHT22;3740;50.700;7.184;2022-07-23T05:45:52;19.50;99.90
7399;DHT22;3740;50.700;7.184;2022-07-23T05:48:39;19.50;99.90
7399;DHT22;3740;50.700;7.184;2022-07-23T05:51:25;19.50;99.90
7399;DHT22;3740;50.700;7.184;2022-07-23T05:54:11;19.50;99.90
7399;DHT22;3740;50.700;7.184;2022-07-23T05:56:57;19.40;99.90
7399;DHT22;3740;50.700;7.184;2022-07-23T05:59:43;19.40;99.90
7399;DHT22;3740;50.700;7.184;2022-07-23T06:02:28;19.40;99.90
7399;DHT22;3740;50.700;7.184;2022-07-23T06:05:14;19.40;99.90
7399;DHT22;3740;50.700;7.184;2022-07-23T06:08:00;19.30;99.90
7399;DHT22;3740;50.700;7.184;2022-07-23T06:10:46;19.30;99.90
7399;DHT22;3740;50.700;7.184;2022-07-23T06:13:32;19.30;99.90
7399;DHT22;3740;50.700;7.184;2022-07-23T06:16:18;19.30;99.90
7399;DHT22;3740;50.700;7.184;2022-07-23T06:19:04;19.30;99.90
7399;DHT22;3740;50.700;7.184;2022-07-23T06:21:50;19.30;99.90
7399;DHT22;3740;50.700;7.184;2022-07-23T06:24:36;19.30;99.90
7399;DHT22;3740;50.700;7.184;2022-07-23T06:27:22;19.40;99.90
7399;DHT22;3740;50.700;7.184;2022-07-23T06:30:08;19.40;99.90
7399;DHT22;3740;50.700;7.184;2022-07-23T06:32:55;19.30;99.90
7399;DHT22;3740;50.700;7.184;2022-07-23T06:35:41;19.40;99.90
7399;DHT22;3740;50.700;7.184;2022-07-23T06:38:27;19.40;99.90
7399;DHT22;3740;50.700;7.184;2022-07-23T06:41:13;19.50;99.90
7399;DHT22;3740;50.700;7.184;2022-07-23T06:43:59;19.50;99.90
7399;DHT22;3740;50.700;7.184;2022-07-23T06:46:45;19.50;99.90
7399;DHT22;3740;50.700;7.184;2022-07-23T06:49:31;19.40;99.90
7399;DHT22;3740;50.700;7.184;2022-07-23T06:52:17;19.40;99.90
7399;DHT22;3740;50.700;7.184;2022-07-23T06:55:03;19.40;99.90
7399;DHT22;3740;50.700;7.184;2022-07-23T06:57:49;19.30;99.90
7399;DHT22;3740;50.700;7.184;2022-07-23T07:00:35;19.40;99.90
7399;DHT22;3740;50.700;7.184;2022-07-23T07:03:21;19.50;99.90
7399;DHT22;3740;50.700;7.184;2022-07-23T07:06:07;19.30;99.90
7399;DHT22;3740;50.700;7.184;2022-07-23T07:08:53;19.40;99.90
7399;DHT22;3740;50.700;7.184;2022-07-23T07:11:39;19.30;99.90
7399;DHT22;3740;50.700;7.184;2022-07-23T07:14:26;19.30;99.90
7399;DHT22;3740;50.700;7.184;2022-07-23T07:17:11;19.40;99.90
7399;DHT22;3740;50.700;7.184;2022-07-23T07:19:57;19.40;99.90
7399;DHT22;3740;50.700;7.184;2022-07-23T07:22:43;19.50;99.90
7399;DHT22;3740;50.700;7.184;2022-07-23T07:25:29;19.50;99.90
7399;DHT22;3740;50.700;7.184;2022-07-23T07:28:15;19.60;99.90
7399;DHT22;3740;50.700;7.184;2022-07-23T07:31:01;19.50;99.90
7399;DHT22;3740;50.700;7.184;2022-07-23T07:33:47;19.50;99.90
7399;DHT22;3740;50.700;7.184;2022-07-23T07:36:33;19.40;99.90
7399;DHT22;3740;50.700;7.184;2022-07-23T07:39:20;19.50;99.90
7399;DHT22;3740;50.700;7.184;2022-07-23T07:42:06;19.50;99.90
7399;DHT22;3740;50.700;7.184;2022-07-23T07:44:52;19.60;99.90
7399;DHT22;3740;50.700;7.184;2022-07-23T07:47:38;19.60;99.90
7399;DHT22;3740;50.700;7.184;2022-07-23T07:50:24;19.60;99.90
7399;DHT22;3740;50.700;7.184;2022-07-23T07:53:10;19.70;99.90
7399;DHT22;3740;50.700;7.184;2022-07-23T07:55:56;19.70;99.90
7399;DHT22;3740;50.700;7.184;2022-07-23T07:58:42;19.80;99.90
7399;DHT22;3740;50.700;7.184;2022-07-23T08:01:28;19.90;99.90
7399;DHT22;3740;50.700;7.184;2022-07-23T08:04:14;19.90;99.90
7399;DHT22;3740;50.700;7.184;2022-07-23T08:07:00;19.90;99.90
7399;DHT22;3740;50.700;7.184;2022-07-23T08:09:46;19.90;99.90
7399;DHT22;3740;50.700;7.184;2022-07-23T08:12:43;20.00;99.90
7399;DHT22;3740;50.700;7.184;2022-07-23T08:15:30;20.00;99.90
7399;DHT22;3740;50.700;7.184;2022-07-23T08:18:17;20.00;99.90
7399;DHT22;3740;50.700;7.184;2022-07-23T08:21:03;20.00;99.90
7399;DHT22;3740;50.700;7.184;2022-07-23T08:23:51;20.10;99.90
7399;DHT22;3740;50.700;7.184;2022-07-23T08:26:37;20.10;99.90
7399;DHT22;3740;50.700;7.184;2022-07-23T08:29:22;20.20;99.90
7399;DHT22;3740;50.700;7.184;2022-07-23T08:32:08;20.20;99.90
7399;DHT22;3740;50.700;7.184;2022-07-23T08:34:54;20.30;99.90
7399;DHT22;3740;50.700;7.184;2022-07-23T08:37:40;20.30;99.90
7399;DHT22;3740;50.700;7.184;2022-07-23T08:40:28;20.30;99.90
7399;DHT22;3740;50.700;7.184;2022-07-23T08:43:25;20.30;99.90
7399;DHT22;3740;50.700;7.184;2022-07-23T08:46:12;20.40;99.90
7399;DHT22;3740;50.700;7.184;2022-07-23T08:48:59;20.50;99.90
7399;DHT22;3740;50.700;7.184;2022-07-23T08:51:45;20.50;99.90
7399;DHT22;3740;50.700;7.184;2022-07-23T08:54:32;20.60;99.90
7399;DHT22;3740;50.700;7.184;2022-07-23T08:57:20;20.60;99.90
7399;DHT22;3740;50.700;7.184;2022-07-23T09:00:06;20.60;99.90
7399;DHT22;3740;50.700;7.184;2022-07-23T09:02:53;20.80;99.90
7399;DHT22;3740;50.700;7.184;2022-07-23T09:05:39;20.80;99.90
7399;DHT22;3740;50.700;7.184;2022-07-23T09:08:27;20.70;99.90
7399;DHT22;3740;50.700;7.184;2022-07-23T09:11:19;20.80;99.90
7399;DHT22;3740;50.700;7.184;2022-07-23T09:14:05;20.80;99.90
7399;DHT22;3740;50.700;7.184;2022-07-23T09:16:51;20.80;99.90
7399;DHT22;3740;50.700;7.184;2022-07-23T09:19:37;20.90;99.90
7399;DHT22;3740;50.700;7.184;2022-07-23T09:22:25;20.90;99.90
7399;DHT22;3740;50.700;7.184;2022-07-23T09:25:18;20.90;99.90
7399;DHT22;3740;50.700;7.184;2022-07-23T09:28:04;21.00;99.90
7399;DHT22;3740;50.700;7.184;2022-07-23T09:30:53;21.00;99.90
7399;DHT22;3740;50.700;7.184;2022-07-23T09:33:39;20.90;99.90
7399;DHT22;3740;50.700;7.184;2022-07-23T09:36:29;21.10;99.90
7399;DHT22;3740;50.700;7.184;2022-07-23T09:39:24;21.10;99.90
7399;DHT22;3740;50.700;7.184;2022-07-23T09:42:24;21.20;99.90
7399;DHT22;3740;50.700;7.184;2022-07-23T09:45:11;21.30;99.90
7399;DHT22;3740;50.700;7.184;2022-07-23T09:48:15;21.40;99.90
7399;DHT22;3740;50.700;7.184;2022-07-23T09:51:04;21.50;99.90
7399;DHT22;3740;50.700;7.184;2022-07-23T09:53:51;21.60;99.90
7399;DHT22;3740;50.700;7.184;2022-07-23T09:56:37;21.50;99.90
7399;DHT22;3740;50.700;7.184;2022-07-23T09:59:31;21.60;99.90
7399;DHT22;3740;50.700;7.184;2022-07-23T10:02:17;21.70;99.90
7399;DHT22;3740;50.700;7.184;2022-07-23T10:05:04;21.90;99.90
7399;DHT22;3740;50.700;7.184;2022-07-23T10:07:51;22.10;99.90
7399;DHT22;3740;50.700;7.184;2022-07-23T10:10:39;22.20;99.90
7399;DHT22;3740;50.700;7.184;2022-07-23T10:13:25;22.40;99.90
7399;DHT22;3740;50.700;7.184;2022-07-23T10:16:14;22.20;99.90
7399;DHT22;3740;50.700;7.184;2022-07-23T10:19:02;22.30;99.90
7399;DHT22;3740;50.700;7.184;2022-07-23T10:21:58;22.30;99.90
7399;DHT22;3740;50.700;7.184;2022-07-23T10:25:35;22.30;99.90
7399;DHT22;3740;50.700;7.184;2022-07-23T10:31:56;22.60;99.90
7399;DHT22;3740;50.700;7.184;2022-07-23T10:35:03;22.70;99.90
7399;DHT22;3740;50.700;7.184;2022-07-23T10:38:06;23.10;99.90
7399;DHT22;3740;50.700;7.184;2022-07-23T10:41:03;23.30;99.90
7399;DHT22;3740;50.700;7.184;2022-07-23T10:44:06;23.40;99.90
7399;DHT22;3740;50.700;7.184;2022-07-23T10:47:01;23.40;99.90
7399;DHT22;3740;50.700;7.184;2022-07-23T10:50:32;23.50;99.90
7399;DHT22;3740;50.700;7.184;2022-07-23T10:53:20;23.80;99.90
7399;DHT22;3740;50.700;7.184;2022-07-23T10:56:06;24.00;99.90
7399;DHT22;3740;50.700;7.184;2022-07-23T10:58:52;24.00;99.90
7399;DHT22;3740;50.700;7.184;2022-07-23T11:01:38;24.30;99.90
7399;DHT22;3740;50.700;7.184;2022-07-23T11:04:48;24.80;99.90
7399;DHT22;3740;50.700;7.184;2022-07-23T11:07:36;25.70;99.90
7399;DHT22;3740;50.700;7.184;2022-07-23T11:13:45;29.80;91.90
7399;DHT22;3740;50.700;7.184;2022-07-23T11:16:46;31.80;88.80
7399;DHT22;3740;50.700;7.184;2022-07-23T11:22:58;34.80;74.80
7399;DHT22;3740;50.700;7.184;2022-07-23T11:25:46;34.40;71.50
7399;DHT22;3740;50.700;7.184;2022-07-23T11:28:32;34.70;70.70
7399;DHT22;3740;50.700;7.184;2022-07-23T11:31:18;35.40;70.00
7399;DHT22;3740;50.700;7.184;2022-07-23T11:37:39;34.70;67.90
7399;DHT22;3740;50.700;7.184;2022-07-23T11:40:25;35.70;66.40
7399;DHT22;3740;50.700;7.184;2022-07-23T11:43:13;36.50;62.40
7399;DHT22;3740;50.700;7.184;2022-07-23T11:46:00;37.20;60.50
7399;DHT22;3740;50.700;7.184;2022-07-23T11:48:46;37.00;59.70
7399;DHT22;3740;50.700;7.184;2022-07-23T11:51:32;36.40;60.50
7399;DHT22;3740;50.700;7.184;2022-07-23T11:54:18;37.00;61.10
7399;DHT22;3740;50.700;7.184;2022-07-23T11:57:04;37.50;58.50
7399;DHT22;3740;50.700;7.184;2022-07-23T11:59:53;38.00;58.00
7399;DHT22;3740;50.700;7.184;2022-07-23T12:02:42;37.50;56.40
7399;DHT22;3740;50.700;7.184;2022-07-23T12:05:32;37.60;55.70
7399;DHT22;3740;50.700;7.184;2022-07-23T12:08:18;38.10;56.20
7399;DHT22;3740;50.700;7.184;2022-07-23T12:11:06;37.80;56.70
7399;DHT22;3740;50.700;7.184;2022-07-23T12:13:56;38.50;55.60
7399;DHT22;3740;50.700;7.184;2022-07-23T12:16:43;37.50;53.90
7399;DHT22;3740;50.700;7.184;2022-07-23T12:19:29;37.30;54.90
7399;DHT22;3740;50.700;7.184;2022-07-23T12:22:15;37.80;55.10
7399;DHT22;3740;50.700;7.184;2022-07-23T12:25:08;38.50;55.10
7399;DHT22;3740;50.700;7.184;2022-07-23T12:30:51;40.10;53.40
7399;DHT22;3740;50.700;7.184;2022-07-23T12:33:39;40.20;52.90
7399;DHT22;3740;50.700;7.184;2022-07-23T12:36:37;38.80;54.00
7399;DHT22;3740;50.700;7.184;2022-07-23T12:39:31;39.80;53.40
7399;DHT22;3740;50.700;7.184;2022-07-23T12:42:17;39.80;52.40
7399;DHT22;3740;50.700;7.184;2022-07-23T12:45:09;39.70;53.20
7399;DHT22;3740;50.700;7.184;2022-07-23T12:47:59;39.70;53.80
7399;DHT22;3740;50.700;7.184;2022-07-23T12:51:00;40.10;53.20
7399;DHT22;3740;50.700;7.184;2022-07-23T12:53:55;39.60;52.60
7399;DHT22;3740;50.700;7.184;2022-07-23T12:56:44;39.20;51.10
7399;DHT22;3740;50.700;7.184;2022-07-23T12:59:31;38.40;51.60
7399;DHT22;3740;50.700;7.184;2022-07-23T13:02:17;38.80;51.80
7399;DHT22;3740;50.700;7.184;2022-07-23T13:05:03;39.40;53.10
7399;DHT22;3740;50.700;7.184;2022-07-23T13:07:49;40.30;52.70
7399;DHT22;3740;50.700;7.184;2022-07-23T13:10:34;39.80;51.70
7399;DHT22;3740;50.700;7.184;2022-07-23T13:13:25;38.70;52.00
7399;DHT22;3740;50.700;7.184;2022-07-23T13:16:11;39.70;52.40
7399;DHT22;3740;50.700;7.184;2022-07-23T13:18:58;39.20;51.90
7399;DHT22;3740;50.700;7.184;2022-07-23T13:21:45;39.70;50.70
7399;DHT22;3740;50.700;7.184;2022-07-23T13:24:31;37.60;52.10
7399;DHT22;3740;50.700;7.184;2022-07-23T13:27:17;38.60;52.60
7399;DHT22;3740;50.700;7.184;2022-07-23T13:30:03;38.00;51.60
7399;DHT22;3740;50.700;7.184;2022-07-23T13:32:49;38.40;52.20
7399;DHT22;3740;50.700;7.184;2022-07-23T13:35:36;38.70;51.10
7399;DHT22;3740;50.700;7.184;2022-07-23T13:38:22;39.40;50.10
7399;DHT22;3740;50.700;7.184;2022-07-23T13:41:08;38.60;50.60
7399;DHT22;3740;50.700;7.184;2022-07-23T13:43:55;38.20;50.30
7399;DHT22;3740;50.700;7.184;2022-07-23T13:46:42;38.30;50.70
7399;DHT22;3740;50.700;7.184;2022-07-23T13:49:27;37.90;49.90
7399;DHT22;3740;50.700;7.184;2022-07-23T13:52:13;38.00;50.40
7399;DHT22;3740;50.700;7.184;2022-07-23T13:55:05;38.20;50.20
7399;DHT22;3740;50.700;7.184;2022-07-23T13:57:51;37.80;50.70
7399;DHT22;3740;50.700;7.184;2022-07-23T14:00:43;37.60;51.30
7399;DHT22;3740;50.700;7.184;2022-07-23T14:03:29;36.70;51.90
7399;DHT22;3740;50.700;7.184;2022-07-23T14:06:14;36.10;52.40
7399;DHT22;3740;50.700;7.184;2022-07-23T14:09:00;36.40;52.10
7399;DHT22;3740;50.700;7.184;2022-07-23T14:11:46;36.00;52.10
7399;DHT22;3740;50.700;7.184;2022-07-23T14:14:32;35.10;53.10
7399;DHT22;3740;50.700;7.184;2022-07-23T14:17:18;34.90;52.90
7399;DHT22;3740;50.700;7.184;2022-07-23T14:20:05;34.90;53.80
7399;DHT22;3740;50.700;7.184;2022-07-23T14:22:52;34.50;53.10
7399;DHT22;3740;50.700;7.184;2022-07-23T14:25:40;35.20;53.10
7399;DHT22;3740;50.700;7.184;2022-07-23T14:28:26;34.50;54.10
7399;DHT22;3740;50.700;7.184;2022-07-23T14:31:11;33.80;55.10
7399;DHT22;3740;50.700;7.184;2022-07-23T14:33:57;34.10;56.10
7399;DHT22;3740;50.700;7.184;2022-07-23T14:36:43;33.60;54.80
7399;DHT22;3740;50.700;7.184;2022-07-23T14:39:29;32.70;57.00
7399;DHT22;3740;50.700;7.184;2022-07-23T14:42:15;32.60;57.50
7399;DHT22;3740;50.700;7.184;2022-07-23T14:45:01;32.30;57.10
7399;DHT22;3740;50.700;7.184;2022-07-23T14:47:47;32.20;58.60
7399;DHT22;3740;50.700;7.184;2022-07-23T14:50:33;32.20;58.40
7399;DHT22;3740;50.700;7.184;2022-07-23T14:53:19;32.40;57.70
7399;DHT22;3740;50.700;7.184;2022-07-23T14:56:05;32.10;58.70
7399;DHT22;3740;50.700;7.184;2022-07-23T14:58:50;31.90;59.70
7399;DHT22;3740;50.700;7.184;2022-07-23T15:01:36;31.50;59.40
7399;DHT22;3740;50.700;7.184;2022-07-23T15:04:23;30.90;59.30
7399;DHT22;3740;50.700;7.184;2022-07-23T15:07:09;30.30;59.30
7399;DHT22;3740;50.700;7.184;2022-07-23T15:09:55;29.90;60.20
7399;DHT22;3740;50.700;7.184;2022-07-23T15:12:41;29.60;61.40
7399;DHT22;3740;50.700;7.184;2022-07-23T15:15:27;29.50;62.00
7399;DHT22;3740;50.700;7.184;2022-07-23T15:18:13;29.50;63.80
7399;DHT22;3740;50.700;7.184;2022-07-23T15:20:58;29.30;62.80
7399;DHT22;3740;50.700;7.184;2022-07-23T15:23:44;29.10;63.40
7399;DHT22;3740;50.700;7.184;2022-07-23T15:26:30;28.90;63.40
7399;DHT22;3740;50.700;7.184;2022-07-23T15:29:16;28.60;64.90
7399;DHT22;3740;50.700;7.184;2022-07-23T15:32:02;28.60;66.30
7399;DHT22;3740;50.700;7.184;2022-07-23T15:34:48;28.70;67.70
7399;DHT22;3740;50.700;7.184;2022-07-23T15:37:35;29.00;67.70
7399;DHT22;3740;50.700;7.184;2022-07-23T15:40:21;29.20;67.60
7399;DHT22;3740;50.700;7.184;2022-07-23T15:43:07;29.20;65.40
7399;DHT22;3740;50.700;7.184;2022-07-23T15:45:53;29.20;65.40
7399;DHT22;3740;50.700;7.184;2022-07-23T15:48:39;28.70;65.40
7399;DHT22;3740;50.700;7.184;2022-07-23T15:51:25;28.70;66.50
7399;DHT22;3740;50.700;7.184;2022-07-23T15:54:11;28.70;66.30
7399;DHT22;3740;50.700;7.184;2022-07-23T15:56:57;28.50;65.30
7399;DHT22;3740;50.700;7.184;2022-07-23T15:59:43;28.50;68.10
7399;DHT22;3740;50.700;7.184;2022-07-23T16:02:29;28.50;67.70
7399;DHT22;3740;50.700;7.184;2022-07-23T16:05:15;28.50;68.70
7399;DHT22;3740;50.700;7.184;2022-07-23T16:08:02;28.30;65.80
7399;DHT22;3740;50.700;7.184;2022-07-23T16:10:48;28.30;68.00
7399;DHT22;3740;50.700;7.184;2022-07-23T16:13:34;28.30;68.40
7399;DHT22;3740;50.700;7.184;2022-07-23T16:16:20;28.10;65.30
7399;DHT22;3740;50.700;7.184;2022-07-23T16:19:08;27.90;66.80
7399;DHT22;3740;50.700;7.184;2022-07-23T16:21:54;27.70;66.50
7399;DHT22;3740;50.700;7.184;2022-07-23T16:24:39;27.60;68.50
7399;DHT22;3740;50.700;7.184;2022-07-23T16:27:25;27.60;69.40
7399;DHT22;3740;50.700;7.184;2022-07-23T16:30:12;27.80;69.30
7399;DHT22;3740;50.700;7.184;2022-07-23T16:32:58;28.00;66.20
7399;DHT22;3740;50.700;7.184;2022-07-23T16:35:44;28.00;67.00
7399;DHT22;3740;50.700;7.184;2022-07-23T16:38:32;27.90;69.40
7399;DHT22;3740;50.700;7.184;2022-07-23T16:41:18;27.60;65.70
7399;DHT22;3740;50.700;7.184;2022-07-23T16:44:04;27.40;68.40
7399;DHT22;3740;50.700;7.184;2022-07-23T16:46:50;27.40;67.50
7399;DHT22;3740;50.700;7.184;2022-07-23T16:49:36;27.30;67.20
7399;DHT22;3740;50.700;7.184;2022-07-23T16:52:22;27.20;68.10
7399;DHT22;3740;50.700;7.184;2022-07-23T16:55:09;27.20;68.90
7399;DHT22;3740;50.700;7.184;2022-07-23T16:57:54;27.20;68.80
7399;DHT22;3740;50.700;7.184;2022-07-23T17:00:41;27.20;71.10
7399;DHT22;3740;50.700;7.184;2022-07-23T17:03:27;27.20;68.20
7399;DHT22;3740;50.700;7.184;2022-07-23T17:06:14;27.10;67.20
7399;DHT22;3740;50.700;7.184;2022-07-23T17:09:00;27.10;67.90
7399;DHT22;3740;50.700;7.184;2022-07-23T17:11:46;27.00;67.70
7399;DHT22;3740;50.700;7.184;2022-07-23T17:14:31;27.00;68.40
7399;DHT22;3740;50.700;7.184;2022-07-23T17:17:17;26.80;67.60
7399;DHT22;3740;50.700;7.184;2022-07-23T17:20:05;26.80;68.90
7399;DHT22;3740;50.700;7.184;2022-07-23T17:22:52;26.80;71.20
7399;DHT22;3740;50.700;7.184;2022-07-23T17:25:38;26.90;72.90
7399;DHT22;3740;50.700;7.184;2022-07-23T17:28:24;26.80;68.50
7399;DHT22;3740;50.700;7.184;2022-07-23T17:31:10;26.80;70.50
7399;DHT22;3740;50.700;7.184;2022-07-23T17:33:56;26.80;72.50
7399;DHT22;3740;50.700;7.184;2022-07-23T17:36:42;26.80;73.50
7399;DHT22;3740;50.700;7.184;2022-07-23T17:39:28;26.80;73.90
7399;DHT22;3740;50.700;7.184;2022-07-23T17:42:14;26.70;73.60
7399;DHT22;3740;50.700;7.184;2022-07-23T17:45:00;26.70;72.40
7399;DHT22;3740;50.700;7.184;2022-07-23T17:47:46;26.60;74.10
7399;DHT22;3740;50.700;7.184;2022-07-23T17:50:32;26.60;75.10
7399;DHT22;3740;50.700;7.184;2022-07-23T17:53:18;26.60;75.00
7399;DHT22;3740;50.700;7.184;2022-07-23T17:56:04;26.50;75.70
7399;DHT22;3740;50.700;7.184;2022-07-23T17:58:50;26.50;76.20
7399;DHT22;3740;50.700;7.184;2022-07-23T18:01:36;26.50;73.30
7399;DHT22;3740;50.700;7.184;2022-07-23T18:04:23;26.40;75.20
7399;DHT22;3740;50.700;7.184;2022-07-23T18:07:09;26.50;74.20
7399;DHT22;3740;50.700;7.184;2022-07-23T18:09:55;26.40;75.60
7399;DHT22;3740;50.700;7.184;2022-07-23T18:12:41;26.40;75.50
7399;DHT22;3740;50.700;7.184;2022-07-23T18:15:27;26.30;75.70
7399;DHT22;3740;50.700;7.184;2022-07-23T18:18:13;26.20;77.40
7399;DHT22;3740;50.700;7.184;2022-07-23T18:20:59;26.20;77.60
7399;DHT22;3740;50.700;7.184;2022-07-23T18:23:45;26.10;76.60
7399;DHT22;3740;50.700;7.184;2022-07-23T18:26:31;26.00;76.60
7399;DHT22;3740;50.700;7.184;2022-07-23T18:29:17;25.90;78.60
7399;DHT22;3740;50.700;7.184;2022-07-23T18:32:04;25.90;77.60